Time;durP1;ratioP1;P1;durP2;ratioP2;P2;SDS_P1;SDS_P2;PMS_P1;PMS_P2;Temp;Humidity;BMP_temperature;BMP_pressure;BME280_temperature;BME280_humidity;BME280_pressure;Samples;Min_cycle;Max_cycle;Signal;HPM_P1;HPM_P2
2021/11/08 00:00:47;;;;;;;;;16.50;14.25;;;;;17.58;100.00;101850.41;5053211;28;45156;-84
2021/11/08 00:03:17;;;;;;;;;19.25;10.50;;;;;17.50;100.00;101860.84;5057676;28;45438;-85
2021/11/08 00:05:44;;;;;;;;;15.75;13.50;;;;;17.47;100.00;101861.94;5051433;28;46526;-84
2021/11/08 00:08:12;;;;;;;;;14.75;12.75;;;;;17.47;100.00;101853.09;5055364;28;45598;-84
2021/11/08 00:10:39;;;;;;;;;17.50;12.75;;;;;17.41;100.00;101849.06;5038152;28;45424;-84
2021/11/08 00:13:07;;;;;;;;;14.25;12.50;;;;;17.45;100.00;101842.53;5043412;28;45402;-85
2021/11/08 00:15:58;;;;;;;;;20.75;14.25;;;;;17.33;100.00;101840.81;5029622;28;47850;-84
2021/11/08 00:21:01;;;;;;;;;19.25;11.50;;;;;17.20;100.00;101840.94;5058131;28;45453;-85
2021/11/08 00:23:28;;;;;;;;;23.00;14.25;;;;;17.18;100.00;101836.69;5060316;28;45307;-84
2021/11/08 00:25:54;;;;;;;;;9.50;7.00;;;;;17.11;100.00;101844.31;5057054;28;45340;-84
2021/11/08 00:28:21;;;;;;;;;21.25;12.25;;;;;17.06;100.00;101841.13;5051766;28;45411;-85
2021/11/08 00:30:48;;;;;;;;;16.50;13.75;;;;;16.95;100.00;101851.78;5064772;28;45537;-85
2021/11/08 00:33:15;;;;;;;;;17.25;10.00;;;;;16.92;100.00;101843.19;5039940;28;46110;-85
2021/11/08 00:35:52;;;;;;;;;14.75;12.25;;;;;16.93;100.00;101853.75;5053937;28;45405;-85
2021/11/08 00:38:18;;;;;;;;;14.75;11.25;;;;;16.88;100.00;101844.38;5053522;28;45260;-85
2021/11/08 00:40:45;;;;;;;;;15.75;14.50;;;;;17.01;100.00;101839.81;5054932;28;45372;-85
2021/11/08 00:43:12;;;;;;;;;21.75;13.50;;;;;17.05;100.00;101841.25;5046927;28;45397;-85
2021/11/08 00:45:39;;;;;;;;;14.75;10.25;;;;;16.90;100.00;101853.97;5042786;28;45376;-85
2021/11/08 00:48:06;;;;;;;;;17.50;15.00;;;;;16.90;100.00;101845.97;5046998;28;45676;-84
2021/11/08 00:50:32;;;;;;;;;17.75;11.25;;;;;17.01;100.00;101854.00;5045422;28;45240;-84
2021/11/08 00:52:59;;;;;;;;;18.75;10.75;;;;;17.01;100.00;101839.81;5041934;28;45485;-85
2021/11/08 00:55:26;;;;;;;;;12.25;11.25;;;;;17.01;100.00;101848.66;5036489;28;47235;-85
2021/11/08 00:57:54;;;;;;;;;17.00;9.50;;;;;16.91;100.00;101842.34;5042226;28;45788;-85
2021/11/08 01:00:21;;;;;;;;;18.25;11.50;;;;;17.02;100.00;101841.50;5061160;28;45399;-85
2021/11/08 01:02:46;;;;;;;;;25.25;12.50;;;;;16.99;100.00;101841.75;5061084;28;45290;-84
2021/11/08 01:05:15;;;;;;;;;13.50;10.00;;;;;17.06;100.00;101859.81;5048877;28;46084;-84
2021/11/08 01:07:40;;;;;;;;;16.75;11.25;;;;;16.83;100.00;101861.59;5066997;28;44942;-85
2021/11/08 01:10:08;;;;;;;;;15.00;11.00;;;;;16.96;100.00;101864.16;5061369;28;44817;-85
2021/11/08 01:12:34;;;;;;;;;13.50;9.50;;;;;16.90;100.00;101848.63;5060938;28;45147;-84
2021/11/08 01:15:00;;;;;;;;;13.25;11.25;;;;;17.05;100.00;101852.78;5067556;28;45979;-84
2021/11/08 01:17:25;;;;;;;;;14.00;9.00;;;;;17.12;100.00;101870.00;5064350;28;45516;-84
2021/11/08 01:19:51;;;;;;;;;15.25;10.00;;;;;17.04;100.00;101856.41;5048777;28;45502;-84
2021/11/08 01:22:19;;;;;;;;;19.00;11.00;;;;;16.98;100.00;101850.72;5049544;28;45516;-84
2021/11/08 01:24:56;;;;;;;;;14.50;10.50;;;;;16.99;100.00;101845.25;5056812;28;46094;-84
2021/11/08 01:27:35;;;;;;;;;18.00;13.75;;;;;16.91;100.00;101847.66;5054497;28;45445;-84
2021/11/08 01:30:05;;;;;;;;;16.75;10.25;;;;;16.96;100.00;101852.63;5057283;28;45391;-84
2021/11/08 01:32:30;;;;;;;;;19.50;10.00;;;;;16.77;100.00;101842.50;5043341;28;45449;-84
2021/11/08 01:34:57;;;;;;;;;16.25;12.50;;;;;16.53;100.00;101847.00;5056805;28;45446;-84
2021/11/08 01:37:22;;;;;;;;;14.25;11.50;;;;;16.47;100.00;101848.34;5048118;28;45624;-84
2021/11/08 01:39:48;;;;;;;;;15.00;10.00;;;;;16.48;100.00;101843.84;5053156;28;45466;-84
2021/11/08 01:42:15;;;;;;;;;12.00;10.00;;;;;16.53;100.00;101844.34;5042108;28;45513;-84
2021/11/08 01:44:42;;;;;;;;;16.00;12.00;;;;;16.52;100.00;101845.31;5039085;28;46454;-84
2021/11/08 01:47:08;;;;;;;;;18.00;11.00;;;;;16.47;100.00;101845.66;5052988;28;45490;-84
2021/11/08 01:49:36;;;;;;;;;14.75;12.25;;;;;16.48;100.00;101834.88;5057010;28;45456;-84
2021/11/08 01:52:03;;;;;;;;;12.00;10.50;;;;;16.46;100.00;101847.47;5045742;28;45435;-85
2021/11/08 01:54:29;;;;;;;;;14.25;12.00;;;;;16.38;100.00;101831.22;5060558;28;46501;-84
2021/11/08 01:56:56;;;;;;;;;13.25;9.50;;;;;16.45;100.00;101851.09;5032463;28;45526;-84
2021/11/08 01:59:23;;;;;;;;;13.50;10.00;;;;;16.26;100.00;101850.78;5050532;28;45472;-84
2021/11/08 02:01:50;;;;;;;;;19.50;12.25;;;;;16.23;100.00;101837.66;5044316;28;46737;-84
2021/11/08 02:04:16;;;;;;;;;17.25;10.00;;;;;16.01;100.00;101824.22;5039776;28;45497;-84
2021/11/08 02:06:41;;;;;;;;;16.25;9.50;;;;;16.26;100.00;101831.25;5040332;28;45412;-85
2021/11/08 02:09:07;;;;;;;;;16.50;8.75;;;;;16.42;100.00;101837.16;5040175;28;45410;-84
2021/11/08 02:11:33;;;;;;;;;12.25;10.50;;;;;16.42;100.00;101832.66;5041740;28;45463;-84
2021/11/08 02:13:59;;;;;;;;;12.25;10.00;;;;;16.34;100.00;101820.88;5032467;28;46114;-84
2021/11/08 02:16:25;;;;;;;;;13.50;12.25;;;;;16.37;100.00;101824.19;5048117;28;45419;-84
2021/11/08 02:18:51;;;;;;;;;14.25;9.25;;;;;16.41;100.00;101836.28;5022554;28;45448;-84
2021/11/08 02:21:17;;;;;;;;;13.50;11.50;;;;;16.40;100.00;101831.06;5040677;28;45354;-85
2021/11/08 02:23:46;;;;;;;;;21.75;14.00;;;;;16.50;100.00;101839.22;5022876;28;46065;-84
2021/11/08 02:26:16;;;;;;;;;16.75;9.50;;;;;16.43;100.00;101829.03;5038727;28;45941;-84
2021/11/08 02:28:44;;;;;;;;;13.00;10.00;;;;;16.43;100.00;101828.19;5042124;28;45412;-84
2021/11/08 02:31:13;;;;;;;;;13.00;12.75;;;;;16.44;100.00;101833.41;5035018;28;45255;-84
2021/11/08 02:33:40;;;;;;;;;15.75;12.00;;;;;16.22;100.00;101824.44;5041807;28;45367;-84
2021/11/08 02:36:06;;;;;;;;;16.50;10.25;;;;;16.18;100.00;101818.50;5034487;28;45712;-84
2021/11/08 02:38:35;;;;;;;;;16.25;10.00;;;;;16.21;100.00;101820.91;5060830;28;45273;-84
2021/11/08 02:41:00;;;;;;;;;14.25;9.00;;;;;16.18;100.00;101820.31;5043587;28;45518;-85
2021/11/08 02:43:27;;;;;;;;;20.25;10.50;;;;;16.21;100.00;101828.91;5032588;28;48091;-84
2021/11/08 02:46:07;;;;;;;;;12.00;10.75;;;;;16.30;100.00;101822.06;5051634;28;45560;-84
2021/11/08 02:48:35;;;;;;;;;14.25;10.00;;;;;16.28;100.00;101830.19;5039775;28;45289;-84
2021/11/08 02:51:22;;;;;;;;;17.75;9.00;;;;;16.24;100.00;101812.72;5055442;28;45440;-84
2021/11/08 02:53:52;;;;;;;;;15.75;11.75;;;;;16.24;100.00;101818.03;5045744;28;45700;-84
2021/11/08 02:56:18;;;;;;;;;14.00;10.50;;;;;16.17;100.00;101819.47;5068140;28;45735;-84
2021/11/08 02:58:45;;;;;;;;;17.50;12.50;;;;;16.21;100.00;101833.41;5060663;28;45165;-85
2021/11/08 03:01:14;;;;;;;;;14.75;12.50;;;;;16.34;100.00;101828.88;5031233;28;45482;-84
2021/11/08 03:03:42;;;;;;;;;12.75;11.00;;;;;16.28;100.00;101816.00;5040983;28;47298;-84
2021/11/08 03:06:26;;;;;;;;;10.00;7.00;;;;;16.36;100.00;101829.63;5033660;28;45749;-84
2021/11/08 03:08:52;;;;;;;;;12.25;8.75;;;;;16.58;100.00;101815.50;5043280;28;45459;-84
2021/11/08 03:11:18;;;;;;;;;17.00;10.00;;;;;16.64;100.00;101820.44;5032036;28;45457;-84
2021/11/08 03:14:00;;;;;;;;;10.25;10.00;;;;;16.64;100.00;101826.63;5062660;28;45406;-85
2021/11/08 03:16:40;;;;;;;;;13.25;8.00;;;;;16.54;100.00;101825.56;5050328;28;45435;-84
2021/11/08 03:22:06;;;;;;;;;9.25;9.25;;;;;16.41;100.00;101841.63;5043534;28;45158;-84
2021/11/08 03:24:49;;;;;;;;;15.00;8.25;;;;;16.18;100.00;101836.31;5038337;28;47564;-84
2021/11/08 03:27:26;;;;;;;;;16.00;11.00;;;;;16.36;100.00;101838.47;5039073;28;45453;-84
2021/11/08 03:29:52;;;;;;;;;20.00;12.25;;;;;16.41;100.00;101836.28;5039645;28;45253;-84
2021/11/08 03:32:20;;;;;;;;;12.75;9.75;;;;;16.46;100.00;101839.47;5044139;28;45533;-84
2021/11/08 03:35:04;;;;;;;;;18.75;13.00;;;;;16.50;100.00;101840.09;5053747;28;45315;-84
2021/11/08 03:37:37;;;;;;;;;11.00;9.00;;;;;16.56;100.00;101839.66;5066890;28;45224;-84
2021/11/08 03:40:07;;;;;;;;;13.00;10.75;;;;;16.43;100.00;101841.50;5058358;28;45237;-84
2021/11/08 03:42:34;;;;;;;;;10.50;10.50;;;;;16.37;100.00;101834.84;5059208;28;45427;-84
2021/11/08 03:45:00;;;;;;;;;14.75;12.25;;;;;16.33;100.00;101838.69;5047348;28;48556;-84
2021/11/08 03:47:26;;;;;;;;;14.50;9.00;;;;;16.30;100.00;101830.91;5063434;28;45423;-84
2021/11/08 03:49:51;;;;;;;;;16.50;9.00;;;;;16.32;100.00;101842.31;5042568;28;45346;-84
2021/11/08 03:52:18;;;;;;;;;13.50;8.50;;;;;16.33;100.00;101838.69;5042353;28;45281;-84
2021/11/08 03:54:43;;;;;;;;;17.25;11.75;;;;;16.20;100.00;101835.25;5042295;28;46123;-84
2021/11/08 03:57:09;;;;;;;;;16.75;11.25;;;;;16.18;100.00;101829.16;5052340;28;45296;-85
2021/11/08 03:59:34;;;;;;;;;18.75;10.25;;;;;16.17;100.00;101821.28;5062338;28;45197;-84
2021/11/08 04:02:01;;;;;;;;;13.00;9.25;;;;;16.21;100.00;101823.59;5056847;28;45326;-84
2021/11/08 04:04:26;;;;;;;;;13.25;9.25;;;;;16.20;100.00;101816.59;5032084;28;47441;-84
2021/11/08 04:06:51;;;;;;;;;14.50;11.00;;;;;16.22;100.00;101819.09;5042061;28;45490;-84
2021/11/08 04:09:17;;;;;;;;;11.75;8.50;;;;;16.20;100.00;101827.25;5042225;28;45258;-84
2021/11/08 04:11:44;;;;;;;;;15.75;12.00;;;;;16.22;100.00;101827.09;5041846;28;45296;-85
2021/11/08 04:14:10;;;;;;;;;11.50;7.50;;;;;16.03;100.00;101825.78;5042056;28;45429;-84
2021/11/08 04:16:39;;;;;;;;;20.50;9.75;;;;;16.16;100.00;101831.09;5041738;28;45433;-85
2021/11/08 04:19:06;;;;;;;;;10.50;8.00;;;;;16.27;100.00;101828.47;5051972;28;45399;-84
2021/11/08 04:21:33;;;;;;;;;12.25;10.25;;;;;16.29;100.00;101829.22;5032322;28;45459;-84
2021/11/08 04:23:59;;;;;;;;;19.75;12.50;;;;;16.32;100.00;101834.31;5027419;28;48341;-84
2021/11/08 04:26:28;;;;;;;;;12.50;9.50;;;;;16.28;100.00;101837.34;5027154;28;45557;-84
2021/11/08 04:29:01;;;;;;;;;13.25;8.25;;;;;16.23;100.00;101837.66;5034458;28;45803;-84
2021/11/08 04:31:27;;;;;;;;;17.50;10.50;;;;;16.35;100.00;101835.91;5061209;28;45463;-84
2021/11/08 04:33:59;;;;;;;;;14.75;9.75;;;;;16.39;100.00;101830.22;5031984;28;47447;-85
2021/11/08 04:41:42;;;;;;;;;10.75;10.00;;;;;16.34;100.00;101835.06;5044725;28;45414;-84
2021/11/08 04:44:35;;;;;;;;;13.25;8.25;;;;;16.28;100.00;101840.84;5058281;28;45461;-84
2021/11/08 04:52:16;;;;;;;;;16.00;10.25;;;;;16.44;100.00;101856.56;5057576;28;45618;-84
2021/11/08 04:55:35;;;;;;;;;11.00;9.00;;;;;16.19;100.00;101846.84;5052917;28;45279;-84
2021/11/08 05:29:56;;;;;;;;;10.00;8.00;;;;;15.94;100.00;101841.59;5045631;28;45412;-84
2021/11/08 05:32:24;;;;;;;;;14.25;8.75;;;;;16.01;100.00;101838.41;5040684;28;45218;-84
2021/11/08 05:34:49;;;;;;;;;14.00;10.25;;;;;16.23;100.00;101843.00;5041028;28;45835;-84
2021/11/08 05:37:15;;;;;;;;;12.00;8.50;;;;;16.39;100.00;101848.88;5062763;28;45151;-84
2021/11/08 05:39:51;;;;;;;;;13.00;9.00;;;;;16.38;100.00;101849.88;5055822;28;45201;-85
2021/11/08 05:42:17;;;;;;;;;15.50;10.50;;;;;16.42;100.00;101855.81;5057118;28;45517;-85
2021/11/08 05:44:43;;;;;;;;;10.00;7.25;;;;;16.37;100.00;101852.66;5060434;28;45347;-85
2021/11/08 05:47:09;;;;;;;;;10.00;8.00;;;;;16.42;100.00;101863.81;5039832;28;46225;-85
2021/11/08 05:49:36;;;;;;;;;13.00;10.25;;;;;16.40;100.00;101852.41;5042731;28;45395;-85
2021/11/08 05:52:02;;;;;;;;;14.75;9.75;;;;;16.45;100.00;101864.44;5056572;28;45237;-84
2021/11/08 05:54:28;;;;;;;;;11.25;8.00;;;;;16.45;100.00;101868.91;5035801;28;45369;-85
2021/11/08 06:50:37;;;;;;;;;16.25;10.50;;;;;16.50;100.00;101916.56;5049644;28;45382;-86
2021/11/08 06:53:06;;;;;;;;;12.50;10.50;;;;;16.23;100.00;101909.63;5045600;28;45384;-85
2021/11/08 06:55:32;;;;;;;;;14.50;8.25;;;;;16.27;100.00;101926.25;5047494;28;45317;-87
2021/11/08 06:58:04;;;;;;;;;13.75;9.25;;;;;16.30;100.00;101910.88;5046962;28;44891;-88
2021/11/08 07:00:31;;;;;;;;;15.50;9.50;;;;;16.40;100.00;101919.91;5034508;28;46630;-86
2021/11/08 07:02:57;;;;;;;;;20.75;9.25;;;;;16.51;100.00;101921.78;5037972;28;46163;-87
2021/11/08 07:05:22;;;;;;;;;13.50;8.00;;;;;16.61;100.00;101927.28;5059109;28;45490;-84
2021/11/08 07:07:47;;;;;;;;;9.25;6.75;;;;;16.59;100.00;101924.72;5058184;28;45339;-86
2021/11/08 07:10:13;;;;;;;;;8.50;8.50;;;;;16.56;100.00;101929.47;5061375;28;45315;-86
2021/11/08 07:12:39;;;;;;;;;15.00;10.50;;;;;16.63;100.00;101925.41;5025779;28;45611;-88
2021/11/08 07:15:06;;;;;;;;;11.25;8.75;;;;;16.65;100.00;101929.66;5039326;28;45285;-88
2021/11/08 07:17:32;;;;;;;;;10.75;9.00;;;;;16.66;100.00;101926.00;5064442;28;45398;-89
2021/11/08 07:20:00;;;;;;;;;12.75;7.75;;;;;16.66;100.00;101931.34;5045892;28;46315;-84
2021/11/08 07:22:26;;;;;;;;;12.25;8.75;;;;;16.82;100.00;101939.94;5047246;28;45577;-85
2021/11/08 07:24:52;;;;;;;;;16.75;11.00;;;;;16.90;100.00;101941.16;5031309;28;46108;-85
2021/11/08 07:27:19;;;;;;;;;19.50;9.25;;;;;16.76;100.00;101928.84;5049566;28;45189;-83
2021/11/08 07:29:44;;;;;;;;;18.75;10.50;;;;;16.81;100.00;101932.03;5073417;28;45068;-80
2021/11/08 07:32:10;;;;;;;;;18.25;10.50;;;;;16.80;100.00;101933.00;5048173;28;45850;-82
2021/11/08 07:34:35;;;;;;;;;15.75;8.00;;;;;16.88;100.00;101941.28;5056080;28;45386;-81
2021/11/08 07:37:01;;;;;;;;;13.75;10.00;;;;;16.85;100.00;101949.50;5058334;28;45456;-80
2021/11/08 07:39:27;;;;;;;;;16.75;10.50;;;;;16.93;100.00;101948.94;5055340;28;45670;-80
2021/11/08 07:41:52;;;;;;;;;15.25;10.00;;;;;17.05;100.00;101953.34;5034422;28;45463;-81
2021/11/08 07:44:18;;;;;;;;;14.50;9.50;;;;;17.21;100.00;101954.72;5056814;28;45580;-82
2021/11/08 07:46:44;;;;;;;;;14.00;9.25;;;;;17.23;100.00;101957.28;5039979;28;45532;-81
2021/11/08 07:49:09;;;;;;;;;16.25;10.25;;;;;17.10;100.00;101952.03;5054129;28;45420;-82
2021/11/08 07:51:34;;;;;;;;;20.50;13.00;;;;;17.08;100.00;101953.97;5057619;28;45398;-81
2021/11/08 07:54:00;;;;;;;;;21.75;12.50;;;;;17.18;100.00;101962.13;5053845;28;45498;-81
2021/11/08 07:56:26;;;;;;;;;18.00;13.00;;;;;17.26;100.00;101961.53;5053868;28;45495;-81
2021/11/08 07:58:52;;;;;;;;;20.25;15.50;;;;;17.40;100.00;101961.34;5034977;28;47171;-81
2021/11/08 08:01:18;;;;;;;;;16.50;14.00;;;;;17.46;100.00;101959.06;5053452;28;45192;-81
2021/11/08 08:03:45;;;;;;;;;15.75;11.00;;;;;17.45;100.00;101965.38;5052582;28;45360;-81
2021/11/08 08:06:11;;;;;;;;;17.75;13.50;;;;;17.52;100.00;101963.91;5057361;28;45494;-81
2021/11/08 08:08:37;;;;;;;;;17.50;13.50;;;;;17.54;100.00;101966.47;5062107;28;45818;-81
2021/11/08 08:11:04;;;;;;;;;15.25;10.00;;;;;17.60;100.00;101963.31;5024679;28;45333;-80
2021/11/08 08:13:30;;;;;;;;;18.00;12.25;;;;;17.62;100.00;101966.75;5026800;28;45357;-80
2021/11/08 08:15:59;;;;;;;;;20.50;14.25;;;;;17.65;100.00;101973.69;5064011;28;45463;-81
2021/11/08 08:18:37;;;;;;;;;19.50;10.75;;;;;17.80;100.00;101975.16;5038924;28;47554;-81
2021/11/08 08:21:04;;;;;;;;;19.50;14.25;;;;;17.86;100.00;101972.84;5068727;28;45525;-81
2021/11/08 08:23:29;;;;;;;;;17.50;12.50;;;;;18.00;100.00;101977.13;5055774;28;45399;-81
2021/11/08 08:25:55;;;;;;;;;17.50;11.25;;;;;18.16;99.13;101968.72;5055217;28;45253;-81
2021/11/08 08:28:21;;;;;;;;;16.00;13.50;;;;;18.22;99.27;101974.41;5052569;28;45505;-81
2021/11/08 08:30:47;;;;;;;;;15.25;11.25;;;;;18.34;99.37;101972.59;5041371;28;45600;-81
2021/11/08 08:33:13;;;;;;;;;22.75;15.50;;;;;18.56;98.71;101971.72;5048138;28;45494;-81
2021/11/08 08:35:41;;;;;;;;;19.50;11.50;;;;;18.58;96.27;101967.94;5061486;28;45281;-81
2021/11/08 08:38:14;;;;;;;;;13.25;10.25;;;;;18.78;95.75;101982.38;5069002;28;45491;-81
2021/11/08 08:40:40;;;;;;;;;18.50;13.00;;;;;18.89;97.54;101973.47;5054422;28;45190;-81
2021/11/08 08:43:07;;;;;;;;;15.50;12.25;;;;;19.08;96.80;101978.13;5034705;28;45444;-81
2021/11/08 08:45:35;;;;;;;;;17.00;11.50;;;;;19.62;95.21;101984.19;5040585;28;45369;-81
2021/11/08 08:48:00;;;;;;;;;15.75;12.00;;;;;19.77;94.31;101971.28;5041686;28;45419;-81
2021/11/08 08:50:26;;;;;;;;;17.25;13.00;;;;;19.75;94.77;101981.31;5042609;28;45422;-81
2021/11/08 08:52:52;;;;;;;;;18.50;14.75;;;;;20.03;92.60;101982.44;5045122;28;45306;-81
2021/11/08 08:55:18;;;;;;;;;21.00;16.25;;;;;20.10;90.88;101984.44;5041931;28;45463;-81
2021/11/08 08:57:44;;;;;;;;;15.00;13.00;;;;;19.96;90.10;101979.44;5053642;28;45378;-81
2021/11/08 09:00:13;;;;;;;;;23.00;15.00;;;;;20.02;90.84;101976.22;5061380;28;45528;-81
2021/11/08 09:02:38;;;;;;;;;23.25;20.25;;;;;20.10;90.23;101981.75;5049213;28;45368;-81
2021/11/08 09:05:04;;;;;;;;;23.75;16.75;;;;;20.17;88.96;101990.13;5023126;28;45518;-82
2021/11/08 09:07:30;;;;;;;;;27.25;18.75;;;;;20.14;89.67;101985.00;5041255;28;45385;-82
2021/11/08 09:09:56;;;;;;;;;23.00;16.25;;;;;20.10;88.94;101987.13;5040966;28;45487;-82
2021/11/08 09:12:22;;;;;;;;;24.50;15.00;;;;;20.26;89.25;101991.97;5023289;28;45289;-81
2021/11/08 09:14:48;;;;;;;;;19.00;16.25;;;;;20.17;88.88;101974.88;5060509;28;45274;-81
2021/11/08 09:17:14;;;;;;;;;33.00;22.50;;;;;20.33;86.38;101987.75;5061115;28;45262;-81
2021/11/08 09:19:40;;;;;;;;;22.75;16.25;;;;;20.37;86.22;101974.97;5061004;28;45255;-81
2021/11/08 09:22:05;;;;;;;;;20.00;18.25;;;;;20.50;87.15;101986.28;5061370;28;45253;-81
2021/11/08 09:24:31;;;;;;;;;23.00;18.50;;;;;20.47;84.56;101976.69;5061183;28;45531;-81
2021/11/08 09:26:56;;;;;;;;;20.75;16.00;;;;;20.41;83.83;101979.06;5062096;28;46164;-81
2021/11/08 09:29:22;;;;;;;;;26.00;16.00;;;;;20.36;85.05;101976.81;5063419;28;45309;-81
2021/11/08 09:31:48;;;;;;;;;25.00;18.25;;;;;20.60;85.63;101971.06;5064090;28;45430;-81
2021/11/08 09:34:17;;;;;;;;;17.50;15.00;;;;;20.88;83.42;101978.28;5065899;28;45352;-81
2021/11/08 09:36:43;;;;;;;;;19.25;14.75;;;;;20.81;83.40;101985.22;5042986;28;47254;-81
2021/11/08 09:39:25;;;;;;;;;22.00;19.00;;;;;20.88;82.94;101980.97;5061914;28;45504;-82
2021/11/08 09:41:57;;;;;;;;;22.75;17.50;;;;;21.16;81.65;101983.81;5043642;28;45396;-82
2021/11/08 09:44:23;;;;;;;;;25.75;18.00;;;;;21.09;81.80;101983.53;5061575;28;45470;-82
2021/11/08 09:46:53;;;;;;;;;27.50;20.25;;;;;21.35;80.00;101978.47;5061169;28;45518;-82
2021/11/08 09:49:19;;;;;;;;;22.50;18.25;;;;;21.35;79.41;101985.66;5042749;28;45516;-82
2021/11/08 09:51:47;;;;;;;;;18.25;14.50;;;;;21.41;80.46;101980.56;5060946;28;45247;-82
2021/11/08 09:54:14;;;;;;;;;19.25;17.00;;;;;21.47;76.45;101974.63;5060705;28;45412;-82
2021/11/08 09:56:41;;;;;;;;;21.00;16.00;;;;;21.69;76.79;101973.44;5061959;28;45434;-82
2021/11/08 09:59:07;;;;;;;;;16.25;13.50;;;;;22.00;77.43;101972.22;5060404;28;45161;-82
2021/11/08 10:01:37;;;;;;;;;11.75;11.75;;;;;22.35;74.20;101965.25;5060769;28;45331;-82
2021/11/08 10:04:04;;;;;;;;;20.00;11.75;;;;;22.64;68.40;101968.63;5060311;28;45442;-82
2021/11/08 10:06:31;;;;;;;;;14.75;11.00;;;;;22.72;67.99;101965.16;5060687;28;45445;-82
2021/11/08 10:08:56;;;;;;;;;13.25;11.25;;;;;22.85;68.62;101975.59;5045862;28;45472;-82
2021/11/08 10:11:22;;;;;;;;;14.25;10.00;;;;;22.86;65.59;101972.72;5045171;28;45420;-82
2021/11/08 10:13:49;;;;;;;;;15.00;11.50;;;;;22.83;66.61;101973.06;5069901;28;45271;-82
2021/11/08 10:16:19;;;;;;;;;15.00;13.00;;;;;23.15;68.93;101961.72;5060233;28;46007;-82
2021/11/08 10:18:52;;;;;;;;;11.25;10.00;;;;;23.49;69.20;101967.22;5059949;28;45672;-82
2021/11/08 10:21:23;;;;;;;;;21.50;16.25;;;;;23.71;65.98;101964.00;5042323;28;45438;-82
2021/11/08 10:23:51;;;;;;;;;18.25;14.50;;;;;23.81;62.96;101969.28;5060338;28;45259;-82
2021/11/08 10:26:20;;;;;;;;;21.00;17.50;;;;;23.73;65.66;101972.78;5042030;28;47077;-82
2021/11/08 10:28:56;;;;;;;;;15.00;13.00;;;;;23.81;58.59;101972.00;5060106;28;45606;-82
2021/11/08 10:31:28;;;;;;;;;10.75;9.75;;;;;23.85;59.17;101955.31;5060299;28;45366;-82
2021/11/08 10:33:56;;;;;;;;;18.25;11.00;;;;;23.75;58.45;101976.19;5064651;28;45423;-83
2021/11/08 10:36:22;;;;;;;;;18.50;13.75;;;;;23.90;60.21;101967.50;5042680;28;47082;-83
2021/11/08 10:38:51;;;;;;;;;13.50;11.75;;;;;24.16;64.04;101968.28;5040807;28;45227;-82
2021/11/08 10:41:20;;;;;;;;;15.75;11.00;;;;;24.07;54.59;101969.25;5040413;28;45317;-82
2021/11/08 10:43:51;;;;;;;;;18.50;11.00;;;;;24.11;57.64;101965.25;5029571;28;46076;-83
2021/11/08 10:46:29;;;;;;;;;10.25;7.75;;;;;24.31;57.66;101963.16;5059630;28;45458;-83
2021/11/08 10:48:59;;;;;;;;;12.50;9.25;;;;;24.13;55.70;101963.19;5062838;28;45396;-82
2021/11/08 10:51:27;;;;;;;;;15.00;10.00;;;;;23.84;56.12;101958.19;5063320;28;44638;-82
2021/11/08 10:54:14;;;;;;;;;12.75;10.50;;;;;23.83;57.84;101973.53;5060542;28;45523;-82
2021/11/08 10:56:47;;;;;;;;;11.25;9.75;;;;;23.90;57.00;101960.25;5064880;28;45461;-82
2021/11/08 10:59:16;;;;;;;;;13.25;11.50;;;;;23.97;54.77;101966.69;5059981;28;45481;-82
2021/11/08 11:01:44;;;;;;;;;15.00;8.00;;;;;24.08;55.34;101957.47;5060313;28;45359;-82
2021/11/08 11:04:10;;;;;;;;;19.25;11.25;;;;;24.19;53.36;101960.72;5041219;28;46132;-83
2021/11/08 11:06:46;;;;;;;;;14.75;10.00;;;;;24.28;58.70;101952.69;5059988;28;46274;-82
2021/11/08 11:09:28;;;;;;;;;10.00;10.00;;;;;24.55;55.70;101965.94;5041654;28;45527;-83
2021/11/08 11:12:15;;;;;;;;;14.00;9.25;;;;;24.60;53.86;101956.31;5059885;28;45232;-83
2021/11/08 11:14:50;;;;;;;;;3.75;0.00;;;;;24.81;57.02;101953.13;5041841;28;45567;-83
2021/11/08 11:17:25;;;;;;;;;7.00;6.00;;;;;25.15;53.22;101957.56;5041463;28;47299;-83
2021/11/08 11:20:13;;;;;;;;;7.75;6.00;;;;;25.09;49.21;101955.56;5059468;28;45252;-82
2021/11/08 11:22:44;;;;;;;;;9.25;6.25;;;;;24.98;50.05;101952.16;5059878;28;45272;-83
2021/11/08 11:25:12;;;;;;;;;11.50;6.50;;;;;24.89;50.09;101966.66;5061006;28;45322;-83
2021/11/08 11:27:51;;;;;;;;;12.25;5.50;;;;;24.52;50.76;101959.00;5041815;28;47512;-82
2021/11/08 11:30:23;;;;;;;;;4.50;3.00;;;;;24.72;48.62;101950.59;5059408;28;45310;-82
2021/11/08 11:33:01;;;;;;;;;3.50;3.25;;;;;25.11;47.55;101945.44;5047284;28;45474;-82
2021/11/08 11:35:31;;;;;;;;;11.00;5.25;;;;;24.65;45.11;101942.31;5057755;28;45233;-83
2021/11/08 11:38:09;;;;;;;;;6.00;4.75;;;;;24.25;48.57;101940.34;5029646;28;46135;-82
2021/11/08 11:40:43;;;;;;;;;7.75;5.50;;;;;24.32;48.41;101940.53;5028781;28;45435;-82
2021/11/08 11:43:12;;;;;;;;;6.25;4.00;;;;;23.87;50.09;101947.91;5059773;28;45415;-81
2021/11/08 11:45:52;;;;;;;;;6.00;5.00;;;;;23.93;45.81;101949.13;5060252;28;45241;-82
2021/11/08 11:48:20;;;;;;;;;6.75;5.50;;;;;23.50;47.90;101936.56;5059278;28;45426;-82
2021/11/08 11:50:46;;;;;;;;;8.00;5.00;;;;;23.54;50.28;101939.81;5041146;28;45361;-82
2021/11/08 11:53:12;;;;;;;;;5.75;4.00;;;;;23.36;50.01;101929.88;5059377;28;45301;-82
2021/11/08 11:55:39;;;;;;;;;8.75;5.75;;;;;23.05;50.66;101937.56;5062424;28;45206;-82
2021/11/08 11:58:05;;;;;;;;;13.50;6.25;;;;;23.10;51.57;101937.09;5044839;28;47222;-82
2021/11/08 12:00:38;;;;;;;;;7.75;5.75;;;;;23.24;46.63;101931.13;5062796;28;45277;-82
2021/11/08 12:03:04;;;;;;;;;6.50;4.75;;;;;23.19;47.14;101928.06;5044496;28;45344;-82
2021/11/08 12:05:30;;;;;;;;;4.50;3.25;;;;;23.19;49.85;101919.16;5066049;28;45178;-82
2021/11/08 12:07:59;;;;;;;;;5.75;3.25;;;;;23.33;49.76;101922.09;5064479;28;45587;-82
2021/11/08 12:10:25;;;;;;;;;9.50;4.00;;;;;23.64;48.59;101921.66;5062404;28;45510;-80
2021/11/08 12:12:52;;;;;;;;;6.50;5.25;;;;;23.69;48.98;101917.47;5067611;28;45418;-83
2021/11/08 12:15:31;;;;;;;;;6.75;4.25;;;;;23.55;48.28;101919.91;5050701;28;45263;-82
2021/11/08 12:18:11;;;;;;;;;7.75;7.00;;;;;23.65;49.60;101902.63;5043208;28;47426;-82
2021/11/08 12:20:45;;;;;;;;;7.25;6.00;;;;;23.89;48.84;101904.59;5045513;28;45284;-82
2021/11/08 12:23:18;;;;;;;;;3.00;3.00;;;;;24.10;49.22;101901.47;5033102;28;45420;-81
2021/11/08 12:25:45;;;;;;;;;5.25;5.25;;;;;24.08;50.87;101901.63;5043828;28;45538;-83
2021/11/08 12:28:16;;;;;;;;;12.25;7.25;;;;;24.46;47.79;101894.84;5059097;28;46136;-84
2021/11/08 12:30:48;;;;;;;;;8.00;6.00;;;;;24.52;49.27;101902.28;5052366;28;45353;-85
2021/11/08 12:33:34;;;;;;;;;8.00;6.75;;;;;24.78;47.46;101894.03;5054793;28;45536;-85
2021/11/08 12:36:05;;;;;;;;;9.75;7.00;;;;;24.71;48.49;101897.56;5054703;28;45668;-86
2021/11/08 12:38:35;;;;;;;;;9.00;4.75;;;;;24.77;49.08;101886.94;5061872;28;46124;-85
2021/11/08 12:41:20;;;;;;;;;9.00;7.00;;;;;25.07;48.58;101893.56;5061461;28;45415;-86
2021/11/08 12:43:56;;;;;;;;;11.50;8.00;;;;;25.07;47.41;101877.34;5047532;28;45426;-86
2021/11/08 12:46:25;;;;;;;;;7.50;7.50;;;;;25.11;47.46;101877.84;5056742;28;45364;-86
2021/11/08 12:48:52;;;;;;;;;7.50;5.75;;;;;25.20;48.35;101874.13;5063111;28;46418;-86
2021/11/08 12:51:22;;;;;;;;;6.75;4.50;;;;;24.99;46.73;101874.63;5060771;28;45485;-85
2021/11/08 12:54:04;;;;;;;;;5.25;5.25;;;;;24.71;47.09;101875.97;5049865;28;46699;-86
2021/11/08 12:56:32;;;;;;;;;7.75;5.75;;;;;24.53;47.61;101871.56;5060647;28;45212;-85
2021/11/08 12:58:59;;;;;;;;;9.75;6.00;;;;;24.33;48.33;101862.06;5040136;28;46173;-85